createdAt,value
2022-09-02T00:02:49.743Z,9.26
2022-09-02T00:05:53.966Z,9.25
2022-09-02T00:08:58.138Z,9.25
2022-09-02T00:12:02.494Z,9.24
2022-09-02T00:15:07.423Z,9.21
2022-09-02T00:18:15.577Z,9.19
2022-09-02T00:21:22.688Z,9.16
2022-09-02T00:24:26.773Z,9.15
2022-09-02T00:27:30.926Z,9.12
2022-09-02T00:30:35.794Z,9.09
2022-09-02T00:33:40.397Z,9.04
2022-09-02T00:36:44.356Z,8.99
2022-09-02T00:39:48.331Z,8.94
2022-09-02T00:42:52.582Z,8.91
2022-09-02T00:45:56.768Z,8.89
2022-09-02T00:49:03.654Z,8.85
2022-09-02T00:52:10.420Z,8.82
2022-09-02T00:55:16.168Z,8.77
2022-09-02T00:58:22.582Z,8.73
2022-09-02T01:01:27.493Z,8.69
2022-09-02T01:04:31.540Z,8.66
2022-09-02T01:07:38.727Z,8.65
2022-09-02T01:10:43.415Z,8.63
2022-09-02T01:13:47.768Z,8.62
2022-09-02T01:16:53.112Z,8.60
2022-09-02T01:19:58.964Z,8.57
2022-09-02T01:23:03.110Z,8.52
2022-09-02T01:26:08.023Z,8.50
2022-09-02T01:29:11.955Z,8.47
2022-09-02T01:32:15.930Z,8.44
2022-09-02T01:35:19.837Z,8.40
2022-09-02T01:38:24.572Z,8.39
2022-09-02T01:41:28.790Z,8.38
2022-09-02T01:44:33.673Z,8.35
2022-09-02T01:47:37.784Z,8.31
2022-09-02T01:50:46.749Z,8.30
2022-09-02T01:53:51.019Z,8.26
2022-09-02T01:56:55.144Z,8.24
2022-09-02T01:59:59.186Z,8.23
2022-09-02T02:03:03.765Z,8.19
2022-09-02T02:06:11.696Z,8.16
2022-09-02T02:09:16.538Z,8.12
2022-09-02T02:12:21.090Z,8.11
2022-09-02T02:18:29.868Z,8.07
2022-09-02T02:21:33.961Z,8.03
2022-09-02T02:24:38.382Z,8.00
2022-09-02T02:27:43.593Z,7.97
2022-09-02T02:30:47.934Z,7.95
2022-09-02T02:33:52.120Z,7.94
2022-09-02T02:36:56.197Z,7.93
2022-09-02T02:40:00.260Z,7.87
2022-09-02T02:43:04.561Z,7.85
2022-09-02T02:46:09.204Z,7.87
2022-09-02T02:49:13.193Z,7.86
2022-09-02T02:52:17.315Z,7.81
2022-09-02T02:55:21.847Z,7.78
2022-09-02T02:58:25.923Z,7.76
2022-09-02T03:01:30.090Z,7.74
2022-09-02T03:04:34.412Z,7.70
2022-09-02T03:07:38.672Z,7.66
2022-09-02T03:10:43.276Z,7.63
2022-09-02T03:13:47.219Z,7.60
2022-09-02T03:16:51.200Z,7.55
2022-09-02T03:19:57.803Z,7.52
2022-09-02T03:23:02.103Z,7.50
2022-09-02T03:26:10.395Z,7.46
2022-09-02T03:29:14.478Z,7.41
2022-09-02T03:32:18.525Z,7.37
2022-09-02T03:35:23.224Z,7.31
2022-09-02T03:38:27.321Z,7.30
2022-09-02T03:41:31.223Z,7.30
2022-09-02T03:44:35.411Z,7.28
2022-09-02T03:47:44.073Z,7.29
2022-09-02T03:50:48.439Z,7.30
2022-09-02T03:53:52.384Z,7.30
2022-09-02T03:56:56.283Z,7.27
2022-09-02T04:00:00.208Z,7.26
2022-09-02T04:03:04.737Z,7.23
2022-09-02T04:06:10.359Z,7.18
2022-09-02T04:09:14.318Z,7.17
2022-09-02T04:12:18.446Z,7.17
2022-09-02T04:15:22.787Z,7.14
2022-09-02T04:18:26.940Z,7.12
2022-09-02T04:21:33.694Z,7.09
2022-09-02T04:24:38.719Z,7.10
2022-09-02T04:27:42.665Z,7.10
2022-09-02T04:30:46.624Z,7.11
2022-09-02T04:33:50.587Z,7.11
2022-09-02T04:36:54.928Z,7.11
2022-09-02T04:39:58.973Z,7.15
2022-09-02T04:43:03.060Z,7.17
2022-09-02T04:46:07.834Z,7.22
2022-09-02T04:49:13.017Z,7.25
2022-09-02T04:52:16.939Z,7.30
2022-09-02T04:55:20.967Z,7.34
2022-09-02T04:58:25.055Z,7.40
2022-09-02T05:01:30.362Z,7.45
2022-09-02T05:04:34.551Z,7.49
2022-09-02T05:07:39.701Z,7.54
2022-09-02T05:10:43.646Z,7.60
2022-09-02T05:13:51.544Z,7.66
2022-09-02T05:16:55.531Z,7.69
2022-09-02T05:19:59.830Z,7.72
2022-09-02T05:23:03.763Z,7.76
2022-09-02T05:26:08.420Z,7.83
2022-09-02T05:29:13.042Z,7.88
2022-09-02T05:32:17.288Z,7.92
2022-09-02T05:35:21.360Z,7.97
2022-09-02T05:38:25.687Z,8.02
2022-09-02T05:41:29.652Z,8.07
2022-09-02T05:44:33.880Z,8.14
2022-09-02T05:47:37.834Z,8.23
2022-09-02T05:50:41.765Z,8.36
2022-09-02T05:53:45.813Z,8.49
2022-09-02T05:56:50.954Z,8.59
2022-09-02T05:59:56.981Z,8.68
2022-09-02T06:03:01.117Z,8.77
2022-09-02T06:06:06.874Z,8.90
2022-09-02T06:09:11.986Z,9.03
2022-09-02T06:12:19.013Z,9.15
2022-09-02T06:15:23.058Z,9.25
2022-09-02T06:18:27.105Z,9.33
2022-09-02T06:21:31.552Z,9.45
2022-09-02T06:24:35.597Z,9.57
2022-09-02T06:27:40.246Z,9.69
2022-09-02T06:30:45.334Z,9.83
2022-09-02T06:33:50.071Z,9.98
2022-09-02T06:36:54.619Z,10.19
2022-09-02T06:39:58.937Z,10.47
2022-09-02T06:43:02.985Z,10.79
2022-09-02T06:46:07.649Z,11.13
2022-09-02T06:49:12.320Z,11.46
2022-09-02T06:52:16.234Z,11.75
2022-09-02T06:55:20.500Z,12.00
2022-09-02T06:58:24.420Z,12.27
2022-09-02T07:01:29.688Z,12.59
2022-09-02T07:04:53.176Z,12.93
2022-09-02T07:07:59.836Z,13.38
2022-09-02T07:11:03.777Z,13.71
2022-09-02T07:14:07.924Z,14.04
2022-09-02T07:17:12.822Z,14.37
2022-09-02T07:20:17.804Z,14.65
2022-09-02T07:23:21.771Z,14.89
2022-09-02T07:26:25.717Z,15.12
2022-09-02T07:29:29.986Z,15.41
2022-09-02T07:32:33.976Z,15.73
2022-09-02T07:35:38.558Z,16.00
2022-09-02T07:38:43.232Z,16.29
2022-09-02T07:41:49.258Z,16.37
2022-09-02T07:44:53.231Z,16.42
2022-09-02T07:47:57.515Z,16.49
2022-09-02T07:51:02.011Z,16.49
2022-09-02T07:54:07.148Z,16.66
2022-09-02T07:57:11.494Z,16.89
2022-09-02T08:00:16.594Z,16.94
2022-09-02T08:03:21.193Z,17.00
2022-09-02T08:06:33.677Z,17.02
2022-09-02T08:09:39.442Z,17.27
2022-09-02T08:12:44.167Z,17.37
2022-09-02T08:15:50.905Z,17.26
2022-09-02T08:18:55.469Z,17.18
2022-09-02T08:22:03.431Z,17.27
2022-09-02T08:25:07.920Z,17.43
2022-09-02T08:28:12.165Z,17.50
2022-09-02T08:31:16.632Z,17.41
2022-09-02T08:34:20.604Z,17.41
2022-09-02T08:37:25.266Z,17.42
2022-09-02T08:40:34.286Z,17.52
2022-09-02T08:43:41.085Z,17.74
2022-09-02T08:46:45.159Z,17.93
2022-09-02T08:49:51.033Z,17.98
2022-09-02T08:52:59.489Z,17.95
2022-09-02T08:56:04.802Z,17.89
2022-09-02T08:59:10.350Z,17.91
2022-09-02T09:02:22.697Z,17.96
2022-09-02T09:05:32.385Z,18.04
2022-09-02T09:08:40.834Z,17.98
2022-09-02T09:11:48.832Z,17.93
2022-09-02T09:14:56.291Z,17.89
2022-09-02T09:18:03.094Z,17.86
2022-09-02T09:21:07.603Z,17.85
2022-09-02T09:24:26.865Z,17.82
2022-09-02T09:27:30.799Z,17.66
2022-09-02T09:30:34.784Z,17.62
2022-09-02T09:33:38.802Z,17.65
2022-09-02T09:36:46.897Z,17.61
2022-09-02T09:39:50.937Z,17.63
2022-09-02T09:42:57.238Z,17.65
2022-09-02T09:46:21.004Z,17.65
2022-09-02T09:49:28.420Z,17.64
2022-09-02T09:52:32.506Z,17.72
2022-09-02T09:55:50.484Z,17.78
2022-09-02T09:58:54.723Z,17.80
2022-09-02T10:01:58.748Z,17.82
2022-09-02T10:05:17.365Z,17.93
2022-09-02T10:08:22.891Z,18.08
2022-09-02T10:11:29.069Z,18.13
2022-09-02T10:14:36.059Z,18.21
2022-09-02T10:17:45.189Z,18.29
2022-09-02T10:24:28.632Z,18.28
2022-09-02T10:27:38.399Z,18.20
2022-09-02T10:30:46.130Z,18.26
2022-09-02T10:33:58.359Z,18.27
2022-09-02T10:37:11.812Z,18.26
2022-09-02T10:40:17.640Z,18.23
2022-09-02T10:43:29.229Z,18.15
2022-09-02T10:46:36.644Z,18.23
2022-09-02T10:50:01.068Z,18.36
2022-09-02T10:53:13.427Z,18.47
2022-09-02T10:56:18.637Z,18.60
2022-09-02T10:59:24.640Z,18.57
2022-09-02T11:02:31.747Z,18.43
2022-09-02T11:05:42.915Z,18.36
2022-09-02T11:08:48.866Z,18.25
2022-09-02T11:12:00.122Z,18.34
2022-09-02T11:15:11.290Z,18.64
2022-09-02T11:18:19.474Z,18.83
2022-09-02T11:21:32.725Z,19.06
2022-09-02T11:24:45.883Z,19.16
2022-09-02T11:27:56.008Z,19.07
2022-09-02T11:31:06.912Z,18.86
2022-09-02T11:34:16.573Z,18.86
2022-09-02T11:37:30.090Z,18.96
2022-09-02T11:40:38.713Z,19.06
2022-09-02T11:43:46.654Z,19.13
2022-09-02T11:46:58.645Z,19.18
2022-09-02T11:50:11.112Z,19.14
2022-09-02T11:53:20.725Z,19.12
2022-09-02T11:56:26.770Z,19.09
2022-09-02T11:59:44.551Z,19.08
2022-09-02T12:02:50.507Z,19.28
2022-09-02T12:06:13.764Z,19.43
2022-09-02T12:09:37.968Z,19.55
2022-09-02T12:13:00.558Z,19.71
2022-09-02T12:16:24.142Z,19.83
2022-09-02T12:19:30.346Z,19.83
2022-09-02T12:22:38.692Z,19.91
2022-09-02T12:25:46.480Z,20.00
2022-09-02T12:28:50.993Z,19.88
2022-09-02T12:31:55.308Z,19.80
2022-09-02T12:35:08.837Z,19.80
2022-09-02T12:38:27.232Z,19.88
2022-09-02T12:41:32.868Z,20.00
2022-09-02T12:44:44.453Z,20.09
2022-09-02T12:47:59.630Z,20.18
2022-09-02T12:51:03.699Z,20.14
2022-09-02T12:54:08.043Z,20.13
2022-09-02T12:57:12.024Z,20.07
2022-09-02T13:00:19.636Z,19.92
2022-09-02T13:03:32.127Z,19.94
2022-09-02T13:06:44.602Z,19.90
2022-09-02T13:10:04.681Z,19.85
2022-09-02T13:13:20.973Z,19.71
2022-09-02T13:16:32.334Z,19.64
2022-09-02T13:19:52.245Z,19.68
2022-09-02T13:23:02.659Z,19.68
2022-09-02T13:26:27.516Z,19.73
2022-09-02T13:29:53.144Z,19.78
2022-09-02T13:33:03.445Z,19.72
2022-09-02T13:36:07.558Z,19.63
2022-09-02T13:39:18.769Z,19.50
2022-09-02T13:42:24.582Z,19.42
2022-09-02T13:45:29.677Z,19.34
2022-09-02T13:48:34.992Z,19.28
2022-09-02T13:51:45.550Z,19.22
2022-09-02T13:54:51.305Z,19.16
2022-09-02T13:57:58.393Z,19.14
2022-09-02T14:01:15.916Z,19.19
2022-09-02T14:04:20.198Z,19.30
2022-09-02T14:07:26.083Z,19.34
2022-09-02T14:10:31.508Z,19.30
2022-09-02T14:13:36.771Z,19.29
2022-09-02T14:16:40.899Z,19.30
2022-09-02T14:19:44.815Z,19.28
2022-09-02T14:22:55.314Z,19.22
2022-09-02T14:26:00.188Z,19.16
2022-09-02T14:29:06.317Z,19.15
2022-09-02T14:32:14.552Z,19.12
2022-09-02T14:35:23.394Z,19.03
2022-09-02T14:38:28.789Z,18.94
2022-09-02T14:41:36.148Z,18.88
2022-09-02T14:44:40.893Z,18.82
2022-09-02T14:47:44.967Z,18.75
2022-09-02T14:50:49.588Z,18.69
2022-09-02T14:53:53.523Z,18.64
2022-09-02T14:56:57.508Z,18.60
2022-09-02T15:00:02.344Z,18.61
2022-09-02T15:03:07.190Z,18.62
2022-09-02T15:06:15.111Z,18.62
2022-09-02T15:09:19.814Z,18.57
2022-09-02T15:12:25.750Z,18.59
2022-09-02T15:15:29.814Z,18.59
2022-09-02T15:18:33.928Z,18.58
2022-09-02T15:21:37.973Z,18.58
2022-09-02T15:24:43.526Z,18.59
2022-09-02T15:27:47.507Z,18.55
2022-09-02T15:30:57.970Z,18.55
2022-09-02T15:34:03.293Z,18.55
2022-09-02T15:37:12.186Z,18.54
2022-09-02T15:40:17.309Z,18.54
2022-09-02T15:43:21.476Z,18.55
2022-09-02T15:46:27.329Z,18.56
2022-09-02T15:49:32.623Z,18.58
2022-09-02T15:52:37.026Z,18.58
2022-09-02T15:55:41.077Z,18.61
2022-09-02T15:58:45.084Z,18.61
2022-09-02T16:01:50.037Z,18.58
2022-09-02T16:04:54.287Z,18.55
2022-09-02T16:07:58.231Z,18.54
2022-09-02T16:11:06.094Z,18.55
2022-09-02T16:14:10.536Z,18.52
2022-09-02T16:17:16.593Z,18.45
2022-09-02T16:20:21.465Z,18.39
2022-09-02T16:23:25.831Z,18.35
2022-09-02T16:26:30.537Z,18.30
2022-09-02T16:29:37.295Z,18.28
2022-09-02T16:32:41.463Z,18.26
2022-09-02T16:35:45.686Z,18.23
2022-09-02T16:38:49.656Z,18.19
2022-09-02T16:41:54.553Z,18.14
2022-09-02T16:44:58.623Z,18.09
2022-09-02T16:48:02.595Z,18.02
2022-09-02T16:51:06.823Z,17.95
2022-09-02T16:54:17.669Z,17.89
2022-09-02T16:57:25.544Z,17.82
2022-09-02T17:00:29.880Z,17.74
2022-09-02T17:03:34.112Z,17.66
2022-09-02T17:06:42.045Z,17.61
2022-09-02T17:09:46.471Z,17.55
2022-09-02T17:12:50.491Z,17.49
2022-09-02T17:15:54.456Z,17.44
2022-09-02T17:18:58.615Z,17.37
2022-09-02T17:22:02.628Z,17.30
2022-09-02T17:25:07.377Z,17.24
2022-09-02T17:28:11.366Z,17.17
2022-09-02T17:31:22.994Z,17.10
2022-09-02T17:34:27.268Z,17.02
2022-09-02T17:37:31.188Z,16.95
2022-09-02T17:40:52.593Z,16.87
2022-09-02T17:43:56.512Z,16.80
2022-09-02T17:47:00.787Z,16.74
2022-09-02T17:50:05.681Z,16.66
2022-09-02T17:53:09.707Z,16.58
2022-09-02T17:56:21.965Z,16.52
2022-09-02T17:59:28.820Z,16.46
2022-09-02T18:02:45.100Z,16.39
2022-09-02T18:05:55.677Z,16.33
2022-09-02T18:09:01.400Z,16.26
2022-09-02T18:12:07.473Z,16.21
2022-09-02T18:15:14.656Z,16.16
2022-09-02T18:18:21.687Z,16.12
2022-09-02T18:21:30.537Z,16.07
2022-09-02T18:24:43.669Z,16.02
2022-09-02T18:27:54.900Z,15.95
2022-09-02T18:31:05.701Z,15.89
2022-09-02T18:34:30.225Z,15.84
2022-09-02T18:37:39.251Z,15.77
2022-09-02T18:40:47.912Z,15.72
2022-09-02T18:43:58.866Z,15.67
2022-09-02T18:47:03.700Z,15.61
2022-09-02T18:50:11.297Z,15.55
2022-09-02T18:53:24.164Z,15.48
2022-09-02T18:56:30.848Z,15.44
2022-09-02T18:59:37.903Z,15.40
2022-09-02T19:02:46.166Z,15.36
2022-09-02T19:05:50.774Z,15.32
2022-09-02T19:08:58.041Z,15.29
2022-09-02T19:12:03.143Z,15.26
2022-09-02T19:15:09.972Z,15.23
2022-09-02T19:18:17.122Z,15.22
2022-09-02T19:21:25.909Z,15.23
2022-09-02T19:24:32.772Z,15.23
2022-09-02T19:27:38.977Z,15.23
2022-09-02T19:30:43.022Z,15.21
2022-09-02T19:33:48.975Z,15.21
2022-09-02T19:36:53.765Z,15.22
2022-09-02T19:40:01.850Z,15.23
2022-09-02T19:43:07.863Z,15.23
2022-09-02T19:46:21.938Z,15.21
2022-09-02T19:49:35.798Z,15.16
2022-09-02T19:52:41.850Z,15.10
2022-09-02T19:55:45.807Z,15.05
2022-09-02T19:58:49.728Z,15.00
2022-09-02T20:01:56.374Z,14.93
2022-09-02T20:05:00.384Z,14.83
2022-09-02T20:08:04.888Z,14.72
2022-09-02T20:11:09.135Z,14.63
2022-09-02T20:14:13.111Z,14.55
2022-09-02T20:17:21.945Z,14.48
2022-09-02T20:20:26.591Z,14.43
2022-09-02T20:23:33.579Z,14.38
2022-09-02T20:26:42.440Z,14.35
2022-09-02T20:29:56.894Z,14.29
2022-09-02T20:33:03.576Z,14.25
2022-09-02T20:36:15.872Z,14.20
2022-09-02T20:39:28.158Z,14.13
2022-09-02T20:42:55.800Z,14.06
2022-09-02T20:46:03.412Z,14.01
2022-09-02T20:49:14.179Z,13.99
2022-09-02T20:52:20.211Z,13.97
2022-09-02T20:55:26.260Z,13.93
2022-09-02T20:58:37.098Z,13.87
2022-09-02T21:01:45.522Z,13.79
2022-09-02T21:04:52.148Z,13.71
2022-09-02T21:08:00.947Z,13.65
2022-09-02T21:11:11.409Z,13.59
2022-09-02T21:14:18.700Z,13.48
2022-09-02T21:17:28.600Z,13.37
2022-09-02T21:20:40.775Z,13.27
2022-09-02T21:23:47.730Z,13.21
2022-09-02T21:26:56.603Z,13.15
2022-09-02T21:30:06.287Z,13.09
2022-09-02T21:33:12.743Z,13.04
2022-09-02T21:36:24.597Z,12.97
2022-09-02T21:39:32.473Z,12.96
2022-09-02T21:42:41.136Z,12.94
2022-09-02T21:45:48.417Z,12.95
2022-09-02T21:48:58.356Z,12.95
2022-09-02T21:52:08.328Z,12.94
2022-09-02T21:55:20.300Z,12.93
2022-09-02T21:58:36.176Z,12.93
2022-09-02T22:01:45.238Z,12.92
2022-09-02T22:04:55.301Z,12.91
2022-09-02T22:08:05.103Z,12.90
2022-09-02T22:11:10.711Z,12.91
2022-09-02T22:14:16.760Z,12.92
2022-09-02T22:17:26.151Z,12.93
2022-09-02T22:20:33.012Z,12.92
2022-09-02T22:23:37.427Z,12.93
2022-09-02T22:26:43.312Z,12.94
2022-09-02T22:29:50.671Z,12.94
2022-09-02T22:32:58.999Z,12.94
2022-09-02T22:36:07.060Z,12.95
2022-09-02T22:39:14.926Z,12.96
2022-09-02T22:42:28.526Z,12.99
2022-09-02T22:45:52.915Z,12.97
2022-09-02T22:49:22.582Z,12.92
2022-09-02T22:52:49.811Z,12.87
2022-09-02T22:55:58.924Z,12.83
2022-09-02T22:59:10.827Z,12.77
2022-09-02T23:02:20.413Z,12.73
2022-09-02T23:05:47.907Z,12.66
2022-09-02T23:08:52.192Z,12.58
2022-09-02T23:12:02.399Z,12.52
2022-09-02T23:15:16.239Z,12.47
2022-09-02T23:18:29.884Z,12.42
2022-09-02T23:21:37.652Z,12.40
2022-09-02T23:24:47.535Z,12.39
2022-09-02T23:27:54.878Z,12.37
2022-09-02T23:31:03.402Z,12.36
2022-09-02T23:34:13.844Z,12.34
2022-09-02T23:37:25.254Z,12.33
2022-09-02T23:40:32.551Z,12.32
2022-09-02T23:43:36.970Z,12.31
2022-09-02T23:46:48.438Z,12.30
2022-09-02T23:49:59.109Z,12.29
2022-09-02T23:53:09.808Z,12.29
2022-09-02T23:56:21.275Z,12.29
2022-09-02T23:59:31.748Z,12.29
